Time;durP1;ratioP1;P1;durP2;ratioP2;P2;SDS_P1;SDS_P2;PMS_P1;PMS_P2;Temp;Humidity;BMP_temperature;BMP_pressure;BME280_temperature;BME280_humidity;BME280_pressure;Samples;Min_cycle;Max_cycle;Signal;HPM_P1;HPM_P2
2023/06/24 00:02:12;;;;;;;5.87;5.27;;;16.90;99.90;;;;;;5056280;28;20169;-79
2023/06/24 00:04:39;;;;;;;5.47;4.80;;;16.90;99.90;;;;;;5056114;28;20630;-79
2023/06/24 00:07:05;;;;;;;6.10;5.23;;;16.90;99.90;;;;;;5056270;28;20259;-80
2023/06/24 00:09:31;;;;;;;5.23;4.77;;;16.90;99.90;;;;;;5055978;28;20270;-76
2023/06/24 00:12:01;;;;;;;5.00;4.60;;;16.90;99.90;;;;;;5056131;28;20182;-79
2023/06/24 00:14:27;;;;;;;6.13;5.00;;;16.90;99.90;;;;;;5056237;28;20242;-78
2023/06/24 00:16:54;;;;;;;6.10;4.80;;;16.80;99.90;;;;;;5056169;28;20206;-79
2023/06/24 00:19:21;;;;;;;5.40;4.90;;;16.80;99.90;;;;;;5038029;28;20179;-78
2023/06/24 00:21:51;;;;;;;5.13;4.63;;;16.80;99.90;;;;;;5056663;28;20233;-77
2023/06/24 00:24:21;;;;;;;5.40;4.90;;;16.70;99.90;;;;;;5063864;28;20247;-77
2023/06/24 00:26:47;;;;;;;5.43;4.93;;;16.70;99.90;;;;;;5068976;28;20164;-78
2023/06/24 00:29:13;;;;;;;5.47;4.97;;;16.70;99.90;;;;;;5064843;28;20179;-78
2023/06/24 00:31:39;;;;;;;5.43;4.93;;;16.70;99.90;;;;;;5055911;28;20176;-78
2023/06/24 00:34:04;;;;;;;5.60;5.10;;;16.70;99.90;;;;;;5055471;28;20638;-77
2023/06/24 00:36:35;;;;;;;5.00;4.60;;;16.70;99.90;;;;;;5055615;28;20247;-77
2023/06/24 00:39:01;;;;;;;5.67;5.10;;;16.60;99.90;;;;;;5046899;28;20266;-77
2023/06/24 00:41:27;;;;;;;5.90;5.30;;;16.70;99.90;;;;;;5018359;28;20176;-77
2023/06/24 00:43:53;;;;;;;5.20;4.80;;;16.60;99.90;;;;;;5018450;28;20207;-77
2023/06/24 00:46:19;;;;;;;5.27;4.83;;;16.60;99.90;;;;;;5035844;28;20169;-78
2023/06/24 00:48:45;;;;;;;5.23;4.57;;;16.60;99.90;;;;;;5036139;28;20177;-78
2023/06/24 00:51:11;;;;;;;6.53;5.50;;;16.60;99.90;;;;;;5048681;28;20187;-80
2023/06/24 00:53:37;;;;;;;5.70;5.03;;;16.60;99.90;;;;;;5030596;28;20657;-79
2023/06/24 00:56:03;;;;;;;7.57;4.67;;;16.60;99.90;;;;;;5039785;28;20191;-78
2023/06/24 00:58:32;;;;;;;5.43;5.00;;;16.60;99.90;;;;;;5059961;28;20216;-78
2023/06/24 01:00:58;;;;;;;5.27;4.73;;;16.60;99.90;;;;;;5027050;28;20171;-80
2023/06/24 01:03:25;;;;;;;5.37;4.90;;;16.60;99.90;;;;;;5054763;28;20187;-82
2023/06/24 01:05:52;;;;;;;6.30;5.57;;;16.60;99.90;;;;;;5036030;28;20173;-82
2023/06/24 01:08:19;;;;;;;5.50;5.00;;;16.60;99.90;;;;;;5035677;28;20177;-82
2023/06/24 01:10:45;;;;;;;6.40;4.97;;;16.50;99.90;;;;;;5035493;28;20255;-81
2023/06/24 01:13:11;;;;;;;6.47;4.50;;;16.50;99.90;;;;;;5035358;28;20199;-79
2023/06/24 01:15:37;;;;;;;4.73;4.40;;;16.40;99.90;;;;;;5055076;28;20183;-80
2023/06/24 01:18:08;;;;;;;6.63;5.10;;;16.50;99.90;;;;;;5037153;28;20691;-80
2023/06/24 01:21:29;;;;;;;5.13;4.73;;;16.40;99.90;;;;;;5054706;28;20546;-81
2023/06/24 01:24:13;;;;;;;5.97;5.10;;;16.40;99.90;;;;;;4957863;28;20186;-82
2023/06/24 01:27:01;;;;;;;4.90;4.50;;;16.50;99.90;;;;;;4974451;28;20643;-81
2023/06/24 01:29:44;;;;;;;4.63;4.30;;;16.50;99.90;;;;;;4973895;28;20659;-81
2023/06/24 01:32:36;;;;;;;5.07;4.67;;;16.50;99.90;;;;;;4974354;28;20202;-80
2023/06/24 01:35:11;;;;;;;4.90;4.50;;;16.40;99.90;;;;;;4974073;28;20187;-81
2023/06/24 01:37:53;;;;;;;4.90;4.50;;;16.40;99.90;;;;;;4957984;28;20214;-80
2023/06/24 01:40:34;;;;;;;5.70;5.10;;;16.40;99.90;;;;;;4973905;28;20195;-80
2023/06/24 01:43:03;;;;;;;5.03;4.63;;;16.20;99.90;;;;;;4973784;28;20202;-78
2023/06/24 01:45:50;;;;;;;4.83;4.43;;;16.10;99.90;;;;;;4973641;28;20190;-78
2023/06/24 01:48:27;;;;;;;5.37;4.87;;;16.10;99.90;;;;;;4973828;28;20211;-78
2023/06/24 01:51:04;;;;;;;5.30;4.83;;;16.20;99.90;;;;;;4974248;28;20239;-80
2023/06/24 01:53:35;;;;;;;5.20;4.80;;;16.20;99.90;;;;;;4984581;28;20566;-77
2023/06/24 01:56:03;;;;;;;4.90;4.50;;;16.20;99.90;;;;;;5054333;28;20654;-79
2023/06/24 01:58:31;;;;;;;5.23;4.70;;;16.20;99.90;;;;;;5054365;28;20262;-80
2023/06/24 02:00:58;;;;;;;5.73;5.13;;;16.10;99.90;;;;;;5054098;28;20512;-79
2023/06/24 02:03:25;;;;;;;4.53;4.13;;;16.10;99.90;;;;;;5036397;28;20660;-79
2023/06/24 02:05:53;;;;;;;5.80;5.27;;;16.10;99.90;;;;;;5054085;28;20216;-80
2023/06/24 02:08:21;;;;;;;5.37;4.97;;;16.10;99.90;;;;;;5054013;28;20208;-78
2023/06/24 02:10:49;;;;;;;7.30;5.00;;;16.20;99.90;;;;;;5053393;28;20518;-78
2023/06/24 02:13:17;;;;;;;5.30;4.90;;;16.10;99.90;;;;;;5043556;28;20239;-76
2023/06/24 02:15:45;;;;;;;4.93;4.40;;;16.10;99.90;;;;;;5040548;28;20218;-79
2023/06/24 02:18:13;;;;;;;6.30;5.07;;;16.10;99.90;;;;;;5034077;28;20208;-77
2023/06/24 02:20:40;;;;;;;5.20;4.70;;;16.10;99.90;;;;;;5034353;28;20974;-78
2023/06/24 02:23:09;;;;;;;5.30;4.80;;;16.10;99.90;;;;;;5043068;28;20218;-79
2023/06/24 02:25:38;;;;;;;5.33;4.67;;;16.10;99.90;;;;;;5051118;28;20183;-78
2023/06/24 02:28:06;;;;;;;5.20;4.80;;;16.10;99.90;;;;;;5036757;28;20184;-77
2023/06/24 02:30:34;;;;;;;5.47;4.97;;;16.10;99.90;;;;;;5049312;28;20169;-78
2023/06/24 02:32:59;;;;;;;5.43;4.93;;;16.00;99.90;;;;;;5035353;28;20187;-80
2023/06/24 02:35:25;;;;;;;5.30;4.87;;;16.00;99.90;;;;;;5019199;28;20180;-79
2023/06/24 02:37:51;;;;;;;6.23;5.20;;;16.00;99.90;;;;;;5029791;28;20216;-80
2023/06/24 02:40:17;;;;;;;5.60;4.83;;;15.90;99.90;;;;;;5048003;28;20238;-80
2023/06/24 02:42:43;;;;;;;6.17;5.13;;;15.90;99.90;;;;;;5050439;28;20173;-80
2023/06/24 02:45:09;;;;;;;5.33;4.83;;;15.90;99.90;;;;;;5048628;28;20176;-79
2023/06/24 02:47:36;;;;;;;5.63;5.13;;;15.90;99.90;;;;;;5074642;28;20168;-79
2023/06/24 02:50:05;;;;;;;5.27;4.87;;;15.90;99.90;;;;;;5056196;28;20184;-82
2023/06/24 02:52:31;;;;;;;5.73;5.23;;;15.90;99.90;;;;;;5073953;28;20230;-81
2023/06/24 02:54:58;;;;;;;5.73;4.67;;;15.90;99.90;;;;;;5066582;28;20216;-80
2023/06/24 02:57:25;;;;;;;7.07;5.20;;;15.90;99.90;;;;;;5074327;28;20249;-79
2023/06/24 02:59:51;;;;;;;6.03;5.03;;;15.90;99.90;;;;;;5060090;28;20192;-79
2023/06/24 03:02:17;;;;;;;6.00;5.27;;;15.90;99.90;;;;;;5077971;28;20184;-82
2023/06/24 03:04:44;;;;;;;6.60;5.33;;;15.90;99.90;;;;;;5078285;28;20187;-79
2023/06/24 03:07:10;;;;;;;5.50;5.10;;;15.90;99.90;;;;;;5060964;28;20172;-78
2023/06/24 03:09:36;;;;;;;5.87;5.37;;;15.90;99.90;;;;;;5071215;28;20187;-79
2023/06/24 03:12:02;;;;;;;5.70;5.20;;;15.90;99.90;;;;;;5055026;28;20250;-79
2023/06/24 03:14:28;;;;;;;6.37;5.77;;;15.90;99.90;;;;;;5054834;28;20179;-82
2023/06/24 03:16:54;;;;;;;8.17;5.83;;;15.90;99.90;;;;;;5036817;28;20218;-81
2023/06/24 03:19:20;;;;;;;6.67;6.07;;;16.00;99.90;;;;;;5054833;28;20218;-80
2023/06/24 03:21:45;;;;;;;6.53;5.90;;;15.90;99.90;;;;;;5036377;28;20180;-79
2023/06/24 03:24:11;;;;;;;6.60;6.00;;;16.00;99.90;;;;;;5052891;28;20181;-80
2023/06/24 03:26:40;;;;;;;6.47;5.57;;;16.00;99.90;;;;;;5043962;28;20540;-79
2023/06/24 03:29:09;;;;;;;6.50;5.90;;;16.00;99.90;;;;;;5034386;28;20656;-80
2023/06/24 03:31:34;;;;;;;6.87;6.27;;;15.90;99.90;;;;;;5042111;28;20266;-77
2023/06/24 03:34:00;;;;;;;6.43;5.57;;;15.90;99.90;;;;;;5017676;28;20222;-79
2023/06/24 03:36:26;;;;;;;6.57;5.97;;;15.80;99.90;;;;;;5033771;28;20231;-81
2023/06/24 03:38:52;;;;;;;7.07;5.73;;;15.90;99.90;;;;;;5033517;28;20647;-78
2023/06/24 03:41:17;;;;;;;6.17;5.57;;;15.90;99.90;;;;;;5033305;28;20182;-77
2023/06/24 03:43:44;;;;;;;5.60;5.20;;;16.00;99.90;;;;;;5015424;28;20184;-78
2023/06/24 03:46:11;;;;;;;5.27;4.87;;;15.80;99.90;;;;;;5032991;28;20191;-75
2023/06/24 03:48:37;;;;;;;6.17;5.67;;;15.90;99.90;;;;;;5033201;28;20181;-80
2023/06/24 03:51:03;;;;;;;5.53;5.03;;;15.90;99.90;;;;;;5033153;28;20176;-81
2023/06/24 03:53:28;;;;;;;6.00;5.50;;;16.00;99.90;;;;;;5033139;28;20184;-81
2023/06/24 03:55:54;;;;;;;6.00;5.50;;;16.10;99.90;;;;;;5015254;28;20238;-79
2023/06/24 03:58:20;;;;;;;6.00;5.50;;;16.10;99.90;;;;;;5032953;28;20219;-80
2023/06/24 04:00:49;;;;;;;6.43;5.53;;;16.10;99.90;;;;;;5032910;28;20640;-76
2023/06/24 04:03:18;;;;;;;5.93;5.43;;;16.10;99.90;;;;;;5032784;28;20654;-78
2023/06/24 04:05:44;;;;;;;5.97;5.47;;;16.20;99.90;;;;;;5015103;28;20659;-81
2023/06/24 04:08:10;;;;;;;5.53;5.13;;;16.20;99.90;;;;;;5042803;28;20177;-78
2023/06/24 04:10:36;;;;;;;5.90;5.40;;;16.30;99.90;;;;;;5046017;28;20266;-77
2023/06/24 04:13:01;;;;;;;6.53;5.67;;;16.30;99.90;;;;;;5016133;28;20234;-79
2023/06/24 04:15:27;;;;;;;5.77;5.27;;;16.30;99.90;;;;;;5033824;28;20178;-78
2023/06/24 04:17:53;;;;;;;5.93;5.40;;;16.40;99.90;;;;;;5032767;28;20568;-78
2023/06/24 04:20:18;;;;;;;5.20;4.70;;;16.30;99.90;;;;;;5046047;28;20172;-79
2023/06/24 04:22:44;;;;;;;6.13;5.57;;;16.30;99.90;;;;;;5047578;28;20614;-77
2023/06/24 04:25:10;;;;;;;5.70;5.30;;;16.30;99.90;;;;;;5032753;28;20577;-77
2023/06/24 04:27:36;;;;;;;6.77;5.17;;;16.30;99.90;;;;;;5032432;28;20177;-78
2023/06/24 04:30:03;;;;;;;5.80;5.30;;;16.40;99.90;;;;;;5036826;28;20188;-78
2023/06/24 04:32:29;;;;;;;5.50;5.10;;;16.50;99.90;;;;;;5055396;28;20669;-78
2023/06/24 04:34:55;;;;;;;6.80;5.07;;;16.60;99.90;;;;;;5036670;28;20181;-79
2023/06/24 04:37:20;;;;;;;5.50;5.10;;;16.60;99.90;;;;;;5057868;28;20211;-77
2023/06/24 04:39:46;;;;;;;5.17;4.77;;;16.60;99.90;;;;;;5049426;28;20184;-78
2023/06/24 04:42:12;;;;;;;6.20;5.23;;;16.70;99.90;;;;;;5023509;28;20207;-78
2023/06/24 04:44:38;;;;;;;5.47;4.87;;;16.90;99.90;;;;;;5057270;28;20182;-77
2023/06/24 04:47:03;;;;;;;6.00;5.50;;;17.00;99.90;;;;;;5036004;28;20174;-77
2023/06/24 04:49:29;;;;;;;6.07;5.00;;;17.10;99.90;;;;;;5041555;28;20238;-79
2023/06/24 04:51:55;;;;;;;4.97;4.47;;;17.30;99.90;;;;;;5017581;28;20230;-77
2023/06/24 04:54:20;;;;;;;5.70;5.10;;;17.50;99.90;;;;;;5035687;28;20251;-79
2023/06/24 04:56:48;;;;;;;6.60;4.90;;;17.60;99.90;;;;;;5052324;28;20214;-79
2023/06/24 04:59:14;;;;;;;5.40;4.80;;;17.70;99.90;;;;;;5055141;28;20174;-77
2023/06/24 05:01:40;;;;;;;5.97;4.63;;;17.80;99.90;;;;;;5041479;28;20552;-81
2023/06/24 05:04:05;;;;;;;5.00;4.57;;;17.70;99.90;;;;;;5039393;28;20263;-78
2023/06/24 05:06:31;;;;;;;5.20;4.70;;;17.70;99.90;;;;;;5037163;28;20180;-78
2023/06/24 05:08:57;;;;;;;5.90;4.80;;;17.70;99.90;;;;;;5018507;28;20244;-81
2023/06/24 05:11:23;;;;;;;5.47;5.07;;;17.70;99.90;;;;;;5035931;28;20172;-79
2023/06/24 05:13:48;;;;;;;5.07;4.70;;;17.80;99.90;;;;;;5035543;28;20184;-78
2023/06/24 05:16:14;;;;;;;5.20;4.90;;;17.90;99.90;;;;;;5036375;28;20177;-81
2023/06/24 05:18:40;;;;;;;5.10;4.70;;;17.90;99.90;;;;;;5044916;28;20239;-78
2023/06/24 05:21:06;;;;;;;6.70;4.67;;;17.90;99.90;;;;;;5044767;28;20251;-79
2023/06/24 05:23:31;;;;;;;5.23;4.20;;;17.90;99.90;;;;;;5038645;28;20169;-77
2023/06/24 05:25:57;;;;;;;6.90;4.63;;;17.90;99.90;;;;;;5036298;28;20176;-78
2023/06/24 05:28:23;;;;;;;4.93;4.53;;;17.90;99.90;;;;;;5035011;28;20169;-79
2023/06/24 05:30:49;;;;;;;4.83;4.43;;;17.90;99.90;;;;;;5035016;28;20624;-78
2023/06/24 05:33:14;;;;;;;4.90;4.40;;;17.80;99.90;;;;;;5017117;28;20180;-79
2023/06/24 05:35:43;;;;;;;4.87;4.17;;;17.90;99.90;;;;;;5034831;28;20195;-78
2023/06/24 05:38:08;;;;;;;5.10;4.37;;;17.90;99.90;;;;;;5034948;28;20197;-79
2023/06/24 05:40:34;;;;;;;4.47;4.07;;;17.90;99.90;;;;;;5035138;28;20186;-79
2023/06/24 05:43:00;;;;;;;4.97;4.57;;;17.90;99.90;;;;;;5017247;28;20545;-78
2023/06/24 05:45:26;;;;;;;4.83;4.17;;;17.90;99.90;;;;;;5038018;28;20282;-81
2023/06/24 05:47:52;;;;;;;5.43;5.03;;;17.80;99.90;;;;;;5074952;28;20180;-79
2023/06/24 05:50:18;;;;;;;4.93;4.63;;;17.70;99.90;;;;;;5058481;28;20261;-78
2023/06/24 05:52:44;;;;;;;5.13;4.73;;;17.80;99.90;;;;;;5035417;28;20238;-81
2023/06/24 05:55:09;;;;;;;6.47;5.07;;;17.90;99.90;;;;;;5016767;28;20232;-81
2023/06/24 05:57:36;;;;;;;6.63;5.43;;;18.00;99.90;;;;;;5022468;28;20303;-79
2023/06/24 06:00:03;;;;;;;4.93;4.43;;;18.00;99.90;;;;;;5056652;28;20632;-78
2023/06/24 06:02:30;;;;;;;6.20;5.60;;;17.90;99.90;;;;;;5037193;28;20513;-80
2023/06/24 06:04:56;;;;;;;6.43;5.60;;;17.90;99.90;;;;;;5034970;28;20183;-81
2023/06/24 06:07:21;;;;;;;5.43;5.00;;;17.90;99.90;;;;;;5034751;28;20178;-81
2023/06/24 06:09:47;;;;;;;5.03;4.63;;;17.90;99.90;;;;;;5034731;28;20172;-82
2023/06/24 06:12:13;;;;;;;5.40;5.00;;;18.00;99.90;;;;;;5032848;28;20221;-83
2023/06/24 06:14:38;;;;;;;5.00;4.60;;;18.10;99.90;;;;;;5054372;28;20176;-81
2023/06/24 06:17:04;;;;;;;4.70;4.40;;;18.20;99.90;;;;;;5058676;28;20202;-80
2023/06/24 06:19:30;;;;;;;5.80;5.20;;;18.30;99.90;;;;;;5073151;28;20262;-79
2023/06/24 06:21:56;;;;;;;5.53;4.63;;;18.30;99.90;;;;;;5040307;28;20189;-78
2023/06/24 06:24:22;;;;;;;4.90;4.60;;;18.40;99.90;;;;;;5016300;28;20275;-79
2023/06/24 06:26:47;;;;;;;5.10;4.70;;;18.50;99.90;;;;;;5037025;28;20656;-77
2023/06/24 06:29:13;;;;;;;5.50;4.30;;;18.60;99.90;;;;;;5034021;28;20181;-77
2023/06/24 06:31:39;;;;;;;5.00;4.50;;;18.80;99.90;;;;;;5045887;28;20234;-77
2023/06/24 06:34:05;;;;;;;4.63;4.23;;;18.90;99.90;;;;;;5038378;28;20180;-79
2023/06/24 06:36:31;;;;;;;4.03;3.73;;;18.90;99.90;;;;;;5034831;28;20169;-76
2023/06/24 06:38:56;;;;;;;3.90;3.60;;;19.20;99.90;;;;;;5034189;28;20621;-77
2023/06/24 06:41:24;;;;;;;3.80;3.57;;;19.40;99.90;;;;;;5034093;28;20579;-80
2023/06/24 06:43:54;;;;;;;5.10;4.60;;;19.70;99.90;;;;;;5034142;28;20478;-79
2023/06/24 06:46:20;;;;;;;4.90;4.07;;;19.90;99.90;;;;;;5037859;28;20180;-83
2023/06/24 06:48:46;;;;;;;4.17;3.87;;;20.00;99.90;;;;;;5034953;28;20177;-84
2023/06/24 06:51:13;;;;;;;4.90;4.50;;;20.20;99.90;;;;;;5033878;28;20176;-79
2023/06/24 06:53:39;;;;;;;5.10;4.10;;;20.20;99.90;;;;;;5033786;28;20259;-79
2023/06/24 06:56:05;;;;;;;4.50;4.20;;;20.20;99.90;;;;;;5033820;28;20172;-80
2023/06/24 06:58:31;;;;;;;4.20;3.90;;;20.20;99.90;;;;;;5032805;28;20208;-80
2023/06/24 07:01:01;;;;;;;4.57;4.17;;;20.30;99.90;;;;;;5016069;28;20214;-80
2023/06/24 07:03:28;;;;;;;3.93;3.47;;;20.40;99.90;;;;;;5035116;28;20179;-81
2023/06/24 07:05:54;;;;;;;3.73;3.53;;;20.60;99.90;;;;;;5038447;28;20172;-83
2023/06/24 07:08:19;;;;;;;3.53;3.30;;;20.80;99.90;;;;;;5021840;28;20211;-83
2023/06/24 07:10:45;;;;;;;3.60;3.37;;;20.80;99.90;;;;;;5039092;28;20252;-81
2023/06/24 07:13:11;;;;;;;2.87;2.77;;;21.10;99.90;;;;;;5034856;28;20176;-81
2023/06/24 07:15:37;;;;;;;3.20;2.90;;;21.00;99.90;;;;;;5033323;28;20169;-80
2023/06/24 07:18:02;;;;;;;2.70;2.60;;;21.10;99.90;;;;;;5033287;28;20704;-80
2023/06/24 07:20:28;;;;;;;3.30;3.10;;;21.20;99.90;;;;;;5033319;28;20176;-81
2023/06/24 07:22:54;;;;;;;1.53;1.40;;;21.10;99.90;;;;;;5033504;28;20219;-82
2023/06/24 07:25:20;;;;;;;1.40;1.40;;;21.00;99.90;;;;;;5043774;28;20167;-84
2023/06/24 07:27:45;;;;;;;1.17;1.17;;;20.80;99.90;;;;;;5029907;28;20180;-84
2023/06/24 07:30:11;;;;;;;1.17;1.17;;;20.80;99.90;;;;;;5036069;28;20169;-83
2023/06/24 07:32:37;;;;;;;1.30;1.30;;;20.60;99.90;;;;;;5033946;28;20226;-80
2023/06/24 07:35:03;;;;;;;0.90;0.90;;;20.70;99.90;;;;;;5033922;28;20662;-81
2023/06/24 07:37:29;;;;;;;0.90;0.90;;;20.90;99.90;;;;;;5045379;28;20188;-83
2023/06/24 07:39:55;;;;;;;0.70;0.70;;;20.90;99.90;;;;;;5057468;28;20181;-80
2023/06/24 07:42:20;;;;;;;0.80;0.80;;;21.00;99.90;;;;;;5041758;28;20233;-81
2023/06/24 07:44:47;;;;;;;1.40;0.47;;;21.10;99.90;;;;;;5036725;28;20567;-80
2023/06/24 07:47:13;;;;;;;0.63;0.63;;;21.20;99.90;;;;;;5033140;28;20172;-80
2023/06/24 07:49:39;;;;;;;0.40;0.40;;;21.20;99.90;;;;;;5033094;28;20180;-82
2023/06/24 07:52:06;;;;;;;0.50;0.50;;;21.10;99.90;;;;;;5035167;28;20176;-81
2023/06/24 07:54:32;;;;;;;1.20;0.30;;;21.30;99.90;;;;;;5016176;28;20232;-81
2023/06/24 07:56:57;;;;;;;0.40;0.40;;;21.40;99.90;;;;;;5015682;28;20211;-82
2023/06/24 07:59:24;;;;;;;0.50;0.50;;;21.20;99.90;;;;;;5033320;28;20582;-81
2023/06/24 08:01:50;;;;;;;0.40;0.40;;;21.20;99.90;;;;;;5033008;28;20201;-80
2023/06/24 08:04:16;;;;;;;0.30;0.30;;;21.10;99.90;;;;;;5033038;28;20648;-81
2023/06/24 08:06:43;;;;;;;0.50;0.50;;;21.20;99.90;;;;;;5015018;28;20191;-81
2023/06/24 08:09:08;;;;;;;0.67;0.40;;;21.20;99.90;;;;;;5016496;28;20177;-81
2023/06/24 08:11:34;;;;;;;0.30;0.30;;;21.40;99.90;;;;;;5039328;28;20218;-80
2023/06/24 08:14:01;;;;;;;0.30;0.30;;;21.50;99.90;;;;;;5037354;28;20168;-81
2023/06/24 08:16:27;;;;;;;0.23;0.20;;;21.50;99.90;;;;;;5035781;28;20200;-80
2023/06/24 08:18:54;;;;;;;0.30;0.30;;;21.50;99.90;;;;;;5044824;28;20215;-79
2023/06/24 08:21:20;;;;;;;0.47;0.43;;;21.60;99.90;;;;;;5045589;28;20194;-81
2023/06/24 08:23:46;;;;;;;0.30;0.30;;;21.70;99.90;;;;;;5039068;28;20173;-82
2023/06/24 08:26:12;;;;;;;1.40;0.50;;;21.50;99.90;;;;;;5044964;28;20181;-81
2023/06/24 08:28:38;;;;;;;0.27;0.20;;;21.50;99.90;;;;;;5059034;28;20173;-80
2023/06/24 08:31:04;;;;;;;1.50;1.40;;;21.40;99.90;;;;;;5037424;28;20176;-82
2023/06/24 08:33:29;;;;;;;0.40;0.40;;;21.30;99.90;;;;;;5018729;28;20172;-80
2023/06/24 08:35:55;;;;;;;1.30;0.40;;;21.40;99.90;;;;;;5036113;28;20533;-81
2023/06/24 08:38:21;;;;;;;0.60;0.60;;;21.40;99.90;;;;;;5036147;28;20305;-82
2023/06/24 08:40:49;;;;;;;1.37;1.27;;;21.50;99.90;;;;;;5018383;28;20176;-81
2023/06/24 08:43:14;;;;;;;0.43;0.43;;;21.60;99.90;;;;;;5018674;28;20225;-80
2023/06/24 08:45:40;;;;;;;0.30;0.30;;;21.70;99.90;;;;;;5036257;28;20219;-80
2023/06/24 08:48:06;;;;;;;0.93;0.93;;;21.70;99.90;;;;;;5035989;28;20192;-81
2023/06/24 08:50:40;;;;;;;0.40;0.40;;;21.80;99.90;;;;;;5018159;28;20183;-81
2023/06/24 08:53:08;;;;;;;0.40;0.40;;;22.00;99.90;;;;;;5018291;28;20185;-80
2023/06/24 08:55:43;;;;;;;0.27;0.27;;;22.00;99.90;;;;;;5036551;28;20228;-81
2023/06/24 08:58:08;;;;;;;1.30;0.50;;;22.10;99.90;;;;;;5037397;28;20298;-81
2023/06/24 09:00:35;;;;;;;0.40;0.40;;;22.20;99.90;;;;;;5037247;28;20208;-81
2023/06/24 09:03:01;;;;;;;0.30;0.30;;;22.30;99.90;;;;;;5018962;28;20608;-81
2023/06/24 09:05:26;;;;;;;0.87;0.20;;;22.20;99.90;;;;;;5057792;28;20169;-81
2023/06/24 09:07:52;;;;;;;0.30;0.30;;;22.20;99.90;;;;;;5038279;28;20188;-82
2023/06/24 09:10:32;;;;;;;0.20;0.20;;;22.20;99.90;;;;;;5019790;28;20198;-81
2023/06/24 09:13:02;;;;;;;0.20;0.20;;;22.10;99.90;;;;;;5037263;28;20211;-81
2023/06/24 09:15:36;;;;;;;0.37;0.37;;;21.90;99.60;;;;;;5025795;28;20188;-81
2023/06/24 09:18:03;;;;;;;0.17;0.17;;;22.10;99.90;;;;;;5053187;28;20284;-81
2023/06/24 09:20:39;;;;;;;0.23;0.23;;;22.20;99.90;;;;;;5019550;28;20323;-81
2023/06/24 09:23:05;;;;;;;0.73;0.73;;;22.20;99.90;;;;;;5037299;28;20165;-81
2023/06/24 09:25:31;;;;;;;0.30;0.30;;;22.50;99.90;;;;;;5035592;28;20251;-80
2023/06/24 09:28:03;;;;;;;0.43;0.43;;;22.40;99.30;;;;;;5035321;28;20187;-81
2023/06/24 09:30:29;;;;;;;0.80;0.80;;;22.20;99.50;;;;;;5035283;28;20617;-80
2023/06/24 09:32:56;;;;;;;0.50;0.50;;;22.40;99.80;;;;;;5035196;28;20259;-79
2023/06/24 09:35:24;;;;;;;0.57;0.57;;;22.40;98.80;;;;;;5017317;28;20639;-80
2023/06/24 09:37:51;;;;;;;0.50;0.50;;;22.40;99.50;;;;;;5017267;28;20208;-80
2023/06/24 09:40:17;;;;;;;0.27;0.27;;;22.50;99.00;;;;;;5034897;28;20176;-80
2023/06/24 09:42:53;;;;;;;0.10;0.10;;;22.50;98.70;;;;;;5017534;28;20187;-80
2023/06/24 09:45:24;;;;;;;0.30;0.30;;;22.40;99.10;;;;;;5037157;28;20172;-81
2023/06/24 09:47:50;;;;;;;0.30;0.30;;;22.60;99.30;;;;;;5038378;28;20184;-80
2023/06/24 09:50:16;;;;;;;1.23;0.20;;;22.70;98.20;;;;;;5035184;28;20181;-81
2023/06/24 09:52:44;;;;;;;0.30;0.30;;;22.60;98.30;;;;;;5035298;28;20315;-80
2023/06/24 09:55:12;;;;;;;0.40;0.40;;;22.50;98.80;;;;;;5034823;28;20726;-80
2023/06/24 09:57:40;;;;;;;0.30;0.30;;;22.50;98.60;;;;;;5035112;28;20563;-81
2023/06/24 10:00:07;;;;;;;0.27;0.27;;;22.50;98.80;;;;;;5035000;28;20633;-81
2023/06/24 10:02:33;;;;;;;0.13;0.13;;;22.50;98.50;;;;;;5035354;28;20176;-81
2023/06/24 10:05:01;;;;;;;1.07;0.47;;;22.40;98.30;;;;;;5036229;28;20161;-81
2023/06/24 10:07:29;;;;;;;0.50;0.50;;;22.50;99.30;;;;;;5035552;28;20587;-82
2023/06/24 10:09:55;;;;;;;0.10;0.10;;;22.40;98.40;;;;;;5017043;28;20173;-81
2023/06/24 10:12:21;;;;;;;0.33;0.33;;;22.50;98.60;;;;;;5036850;28;20222;-82
2023/06/24 10:14:48;;;;;;;0.30;0.30;;;22.60;98.90;;;;;;5032388;28;20180;-82
2023/06/24 10:17:14;;;;;;;0.20;0.20;;;22.80;98.80;;;;;;5042893;28;20295;-80
2023/06/24 10:19:41;;;;;;;0.20;0.20;;;22.90;98.20;;;;;;5035220;28;20259;-80
2023/06/24 10:22:11;;;;;;;0.20;0.20;;;22.80;97.10;;;;;;5034988;28;20714;-81
2023/06/24 10:24:42;;;;;;;0.10;0.10;;;22.90;96.70;;;;;;5034450;28;20183;-81
2023/06/24 10:27:21;;;;;;;0.17;0.17;;;22.90;97.00;;;;;;5035006;28;20182;-80
2023/06/24 10:29:52;;;;;;;0.30;0.20;;;23.00;96.80;;;;;;5017770;28;20176;-80
2023/06/24 10:32:19;;;;;;;0.10;0.10;;;22.90;96.80;;;;;;5016478;28;20208;-79
2023/06/24 10:34:47;;;;;;;0.10;0.10;;;23.00;96.70;;;;;;5035736;28;20173;-81
2023/06/24 10:37:31;;;;;;;0.40;0.40;;;23.00;96.50;;;;;;5035325;28;20200;-79
2023/06/24 10:39:59;;;;;;;0.30;0.30;;;22.80;96.70;;;;;;5033845;28;20160;-82
2023/06/24 10:42:38;;;;;;;0.10;0.10;;;22.90;97.00;;;;;;5018534;28;20177;-81
2023/06/24 10:45:10;;;;;;;0.30;0.20;;;22.80;96.60;;;;;;5052490;28;20226;-80
2023/06/24 10:47:41;;;;;;;0.20;0.20;;;22.70;96.90;;;;;;5035276;28;20233;-81
2023/06/24 10:50:09;;;;;;;0.97;0.30;;;22.70;97.40;;;;;;5016251;28;20271;-82
2023/06/24 10:52:43;;;;;;;0.33;0.33;;;22.70;96.80;;;;;;5034237;28;20177;-81
2023/06/24 10:55:10;;;;;;;0.30;0.30;;;22.50;96.60;;;;;;5045404;28;20238;-84
2023/06/24 10:57:36;;;;;;;0.40;0.40;;;22.60;96.90;;;;;;5054317;28;20207;-82
2023/06/24 11:00:03;;;;;;;0.20;0.20;;;22.60;97.00;;;;;;5023495;28;20732;-80
2023/06/24 11:02:29;;;;;;;0.50;0.50;;;22.60;97.00;;;;;;5034050;28;20184;-79
2023/06/24 11:04:57;;;;;;;0.60;0.60;;;22.50;97.20;;;;;;5034479;28;20235;-80
2023/06/24 11:07:27;;;;;;;0.20;0.20;;;22.40;97.20;;;;;;5033855;28;20171;-80
2023/06/24 11:09:55;;;;;;;0.20;0.20;;;22.20;96.90;;;;;;5033480;28;20536;-81
2023/06/24 11:12:35;;;;;;;0.30;0.30;;;22.30;97.20;;;;;;5033689;28;20221;-80
2023/06/24 11:15:06;;;;;;;0.10;0.10;;;22.30;97.10;;;;;;5033669;28;20545;-80
2023/06/24 11:17:33;;;;;;;0.30;0.30;;;22.30;97.20;;;;;;5034493;28;20295;-81
2023/06/24 11:19:59;;;;;;;0.40;0.30;;;22.20;97.00;;;;;;5024786;28;20173;-80
2023/06/24 11:22:26;;;;;;;0.10;0.10;;;22.30;97.10;;;;;;5023695;28;20262;-81
2023/06/24 11:24:53;;;;;;;0.40;0.33;;;22.30;97.10;;;;;;5034434;28;20196;-80
2023/06/24 11:27:27;;;;;;;0.13;0.13;;;22.40;97.00;;;;;;5033860;28;20191;-80
2023/06/24 11:29:55;;;;;;;0.20;0.20;;;22.40;97.10;;;;;;5033845;28;20630;-80
2023/06/24 11:32:21;;;;;;;0.20;0.20;;;22.50;96.80;;;;;;5033849;28;20230;-81
2023/06/24 11:34:47;;;;;;;0.40;0.40;;;22.60;96.80;;;;;;5023932;28;20203;-83
2023/06/24 11:37:16;;;;;;;0.17;0.17;;;22.80;96.40;;;;;;5030657;28;20205;-81
2023/06/24 11:39:42;;;;;;;0.10;0.10;;;22.90;96.50;;;;;;5025782;28;20180;-82
2023/06/24 11:42:09;;;;;;;0.20;0.20;;;23.00;96.20;;;;;;5031297;28;20184;-84
2023/06/24 11:44:35;;;;;;;0.20;0.20;;;23.10;96.90;;;;;;5038592;28;20234;-78
2023/06/24 11:47:06;;;;;;;0.30;0.30;;;23.10;95.80;;;;;;5037579;28;20291;-79
2023/06/24 11:49:32;;;;;;;1.50;0.33;;;23.10;96.30;;;;;;5037758;28;20556;-80
2023/06/24 11:51:57;;;;;;;1.37;0.20;;;23.00;96.20;;;;;;5019444;28;20174;-80
2023/06/24 11:54:24;;;;;;;0.80;0.80;;;22.90;96.20;;;;;;5019475;28;20228;-80
2023/06/24 11:56:52;;;;;;;0.30;0.30;;;22.90;96.40;;;;;;5019348;28;20172;-81
2023/06/24 11:59:22;;;;;;;0.40;0.40;;;22.90;95.90;;;;;;5019156;28;20267;-81
2023/06/24 12:01:55;;;;;;;0.30;0.30;;;23.00;96.10;;;;;;5037390;28;20552;-80
2023/06/24 12:04:26;;;;;;;0.53;0.23;;;23.00;96.30;;;;;;5037498;28;20180;-81
2023/06/24 12:06:52;;;;;;;0.30;0.30;;;23.20;95.90;;;;;;5019457;28;20592;-81
2023/06/24 12:09:18;;;;;;;0.20;0.20;;;23.10;96.00;;;;;;5023628;28;20219;-81
2023/06/24 12:11:44;;;;;;;0.40;0.40;;;23.00;95.70;;;;;;5025573;28;20180;-81
2023/06/24 12:14:09;;;;;;;0.20;0.20;;;23.00;96.10;;;;;;5050741;28;20180;-81
2023/06/24 12:16:35;;;;;;;0.40;0.30;;;22.90;96.00;;;;;;5020251;28;20230;-82
2023/06/24 12:19:01;;;;;;;0.27;0.27;;;22.80;96.20;;;;;;5019244;28;20204;-81
2023/06/24 12:21:27;;;;;;;0.20;0.20;;;22.80;95.70;;;;;;5039812;28;20167;-80
2023/06/24 12:23:53;;;;;;;0.83;0.40;;;22.70;95.90;;;;;;5033890;28;20601;-82
2023/06/24 12:26:19;;;;;;;0.20;0.20;;;22.80;96.30;;;;;;5037274;28;20173;-80
2023/06/24 12:28:45;;;;;;;0.37;0.37;;;23.00;96.00;;;;;;5037248;28;20211;-82
2023/06/24 12:31:11;;;;;;;0.30;0.30;;;23.30;96.10;;;;;;5037510;28;20177;-81
2023/06/24 12:33:37;;;;;;;0.30;0.30;;;23.20;95.60;;;;;;5046149;28;20194;-81
2023/06/24 12:36:03;;;;;;;0.13;0.13;;;23.20;95.60;;;;;;5056802;28;20192;-81
2023/06/24 12:38:29;;;;;;;0.87;0.50;;;23.40;95.60;;;;;;5039769;28;20208;-83
2023/06/24 12:40:54;;;;;;;0.40;0.40;;;23.30;95.40;;;;;;5021751;28;20275;-81
2023/06/24 12:43:20;;;;;;;1.50;0.33;;;22.80;95.10;;;;;;5036179;28;20173;-83
2023/06/24 12:45:46;;;;;;;0.60;0.60;;;22.90;95.70;;;;;;5018435;28;20195;-80
2023/06/24 12:48:13;;;;;;;1.00;0.70;;;22.90;95.70;;;;;;5036389;28;20173;-79
2023/06/24 12:50:39;;;;;;;0.47;0.47;;;22.90;95.60;;;;;;5036674;28;20182;-80